Time;durP1;ratioP1;P1;durP2;ratioP2;P2;SDS_P1;SDS_P2;PMS_P1;PMS_P2;Temp;Humidity;BMP_temperature;BMP_pressure;BME280_temperature;BME280_humidity;BME280_pressure;Samples;Min_cycle;Max_cycle;Signal;HPM_P1;HPM_P2
2023/06/11 00:01:14;;;;;;;5.15;4.75;;;;;;;19.29;62.45;96939.91;10474038;28;20508;-72
2023/06/11 00:06:56;;;;;;;4.72;4.32;;;;;;;19.29;62.32;96946.09;10479412;28;20132;-72
2023/06/11 00:12:15;;;;;;;4.72;4.32;;;;;;;19.29;62.39;96939.91;10501074;28;20492;-72
2023/06/11 00:17:35;;;;;;;4.43;4.13;;;;;;;19.29;62.15;96938.00;10515700;28;20041;-71
2023/06/11 00:22:55;;;;;;;5.18;4.68;;;;;;;19.30;62.27;96944.19;10486387;28;20051;-72
2023/06/11 00:28:14;;;;;;;4.40;4.00;;;;;;;19.29;62.30;96939.91;10486971;28;20187;-72
2023/06/11 00:33:34;;;;;;;4.65;4.25;;;;;;;19.28;62.21;96936.41;10500076;28;20055;-72
2023/06/11 00:38:55;;;;;;;5.10;4.68;;;;;;;19.29;62.24;96934.53;10485887;28;20290;-72
2023/06/11 00:44:21;;;;;;;4.53;4.13;;;;;;;19.27;62.30;96934.84;10499740;28;20111;-72
2023/06/11 00:49:41;;;;;;;4.38;4.00;;;;;;;19.28;62.36;96936.41;10499253;28;20131;-72
2023/06/11 00:55:02;;;;;;;4.35;3.95;;;;;;;19.26;62.37;96927.81;10499161;28;20044;-72
2023/06/11 01:00:22;;;;;;;4.50;4.10;;;;;;;19.27;62.29;96934.84;10484971;28;20040;-72
2023/06/11 01:05:44;;;;;;;4.18;3.88;;;;;;;19.27;62.07;96939.44;10499670;28;20049;-72
2023/06/11 01:11:03;;;;;;;4.50;4.20;;;;;;;19.27;62.15;96931.34;10498763;28;20476;-72
2023/06/11 01:16:34;;;;;;;4.47;4.05;;;;;;;19.27;62.31;96937.53;10498418;28;20097;-72
2023/06/11 01:21:59;;;;;;;4.20;3.90;;;;;;;19.28;62.28;96938.31;10498046;28;20041;-72
2023/06/11 01:27:43;;;;;;;4.63;4.22;;;;;;;19.27;62.22;96934.03;10470307;28;20044;-71
2023/06/11 01:33:03;;;;;;;4.05;3.72;;;;;;;19.26;62.33;96941.34;10494756;28;20060;-72
2023/06/11 01:38:34;;;;;;;4.28;3.97;;;;;;;19.26;62.19;96940.53;10484112;28;20121;-72
2023/06/11 01:43:55;;;;;;;4.25;3.83;;;;;;;19.26;62.29;96946.72;10484230;28;20041;-72
2023/06/11 01:49:15;;;;;;;4.05;3.72;;;;;;;19.26;62.18;96940.53;10468506;28;20043;-72
2023/06/11 01:54:35;;;;;;;4.07;3.67;;;;;;;19.25;62.19;96950.56;10496923;28;20044;-72
2023/06/11 01:59:54;;;;;;;4.53;4.13;;;;;;;19.28;62.34;96943.72;10469211;28;20043;-75
2023/06/11 02:05:14;;;;;;;4.10;3.80;;;;;;;19.26;62.29;96946.72;10468323;28;20477;-75
2023/06/11 02:10:34;;;;;;;4.20;3.90;;;;;;;19.26;62.21;96951.34;10478694;28;20048;-75
2023/06/11 02:15:53;;;;;;;4.03;3.72;;;;;;;19.26;62.25;96948.66;10493510;28;20110;-75
2023/06/11 02:21:12;;;;;;;4.15;3.85;;;;;;;19.25;62.25;96947.03;10480445;28;20049;-75
2023/06/11 02:26:32;;;;;;;4.20;3.90;;;;;;;19.25;62.19;96955.97;10480559;28;20041;-75
2023/06/11 02:31:52;;;;;;;4.10;3.70;;;;;;;19.25;62.19;96949.75;10494570;28;20047;-75
2023/06/11 02:37:11;;;;;;;4.20;3.80;;;;;;;19.25;62.29;96955.16;10494179;28;20045;-75
2023/06/11 02:42:31;;;;;;;4.10;3.80;;;;;;;19.25;62.26;96963.25;10480343;28;20499;-75
2023/06/11 02:47:51;;;;;;;3.95;3.60;;;;;;;19.25;62.37;96965.94;10494218;28;20115;-75
2023/06/11 02:53:10;;;;;;;3.70;3.40;;;;;;;19.24;62.14;96964.38;10466267;28;20040;-75
2023/06/11 02:58:29;;;;;;;3.55;3.25;;;;;;;19.24;62.32;96970.56;10495313;28;20037;-75
2023/06/11 03:03:49;;;;;;;3.95;3.65;;;;;;;19.23;62.25;96970.88;10441208;28;1126154;-75
2023/06/11 03:09:16;;;;;;;3.72;3.42;;;;;;;19.23;62.27;96973.59;10505395;28;20049;-75
2023/06/11 03:14:35;;;;;;;3.72;3.42;;;;;;;19.23;62.26;96982.50;10489652;28;20044;-76
2023/06/11 03:19:55;;;;;;;3.75;3.45;;;;;;;19.23;62.13;96990.59;10503609;28;20055;-75
2023/06/11 03:25:15;;;;;;;4.10;3.80;;;;;;;19.23;62.16;96985.19;10503040;28;20069;-75
2023/06/11 03:30:35;;;;;;;3.70;3.40;;;;;;;19.22;62.21;96989.00;10474940;28;20047;-75
2023/06/11 03:35:56;;;;;;;3.95;3.63;;;;;;;19.23;62.13;96995.19;10516700;28;20484;-75
2023/06/11 03:41:19;;;;;;;4.05;3.75;;;;;;;19.23;62.16;97000.59;10488681;28;20036;-75
2023/06/11 03:46:39;;;;;;;3.90;3.53;;;;;;;19.22;62.15;96999.81;10488134;28;20497;-76
2023/06/11 03:51:59;;;;;;;3.88;3.58;;;;;;;19.22;62.45;97009.81;10502084;28;20044;-75
2023/06/11 03:57:18;;;;;;;3.70;3.40;;;;;;;19.22;62.10;97005.22;10501668;28;20485;-75
2023/06/11 04:02:39;;;;;;;3.83;3.53;;;;;;;19.23;61.97;97014.91;10481880;28;20413;-75
2023/06/11 04:07:59;;;;;;;3.95;3.60;;;;;;;19.23;62.12;97014.09;10501338;28;20409;-75
2023/06/11 04:13:19;;;;;;;3.70;3.40;;;;;;;19.24;62.13;97024.59;10515766;28;20492;-75
2023/06/11 04:18:38;;;;;;;3.33;3.00;;;;;;;19.24;62.08;97029.19;10486849;28;20044;-75
2023/06/11 04:23:58;;;;;;;4.00;3.70;;;;;;;19.25;61.75;97020.78;10445489;28;20432;-75
2023/06/11 04:29:19;;;;;;;3.95;3.65;;;;;;;19.24;61.73;97019.19;10445253;28;20489;-76
2023/06/11 04:34:43;;;;;;;4.20;3.90;;;;;;;19.27;61.63;97025.88;10445261;28;20052;-75
2023/06/11 04:40:09;;;;;;;3.95;3.65;;;;;;;19.26;61.74;97027.75;10444921;28;20045;-75
2023/06/11 04:45:30;;;;;;;3.75;3.45;;;;;;;19.27;61.69;97025.88;10459061;28;20045;-75
2023/06/11 04:50:51;;;;;;;3.50;3.20;;;;;;;19.27;61.68;97020.47;10444474;28;20041;-75
2023/06/11 04:56:11;;;;;;;3.80;3.50;;;;;;;19.28;61.88;97024.75;10430524;28;20049;-75
2023/06/11 05:01:32;;;;;;;3.20;3.00;;;;;;;19.27;61.84;97029.38;10441641;28;20045;-75
2023/06/11 05:06:54;;;;;;;3.35;3.15;;;;;;;19.26;61.94;97032.38;10443985;28;20091;-75
2023/06/11 05:12:16;;;;;;;3.60;3.30;;;;;;;19.28;61.98;97032.84;10430042;28;20041;-75
2023/06/11 05:17:36;;;;;;;3.55;3.20;;;;;;;19.27;61.80;97037.47;10457043;28;20041;-75
2023/06/11 05:22:59;;;;;;;3.47;3.17;;;;;;;19.27;61.79;97039.38;10477202;28;20488;-75
2023/06/11 05:28:20;;;;;;;3.50;3.20;;;;;;;19.26;61.91;97040.47;10498021;28;20488;-75
2023/06/11 05:33:42;;;;;;;3.50;3.20;;;;;;;19.27;61.78;97044.78;10484105;28;20435;-75
2023/06/11 05:39:02;;;;;;;3.47;3.17;;;;;;;19.25;61.88;97039.69;10469764;28;20051;-75
2023/06/11 05:44:22;;;;;;;3.60;3.25;;;;;;;19.27;61.92;97055.59;10497177;28;20041;-75
2023/06/11 05:49:42;;;;;;;3.40;3.10;;;;;;;19.26;61.86;97062.09;10497094;28;20040;-75
2023/06/11 05:55:02;;;;;;;3.25;3.05;;;;;;;19.26;61.89;97054.00;10496940;28;20068;-75
2023/06/11 06:00:22;;;;;;;3.42;3.22;;;;;;;19.26;61.98;97056.69;10495677;28;20078;-75
2023/06/11 06:05:46;;;;;;;3.42;3.13;;;;;;;19.25;61.94;97055.91;10469290;28;20040;-75
2023/06/11 06:11:06;;;;;;;3.40;3.10;;;;;;;19.26;61.91;97070.19;10496648;28;20404;-75
2023/06/11 06:16:25;;;;;;;3.38;3.08;;;;;;;19.26;61.73;97070.19;10511334;28;20048;-75
2023/06/11 06:21:46;;;;;;;3.45;3.17;;;;;;;19.26;62.01;97078.31;10482011;28;20119;-75
2023/06/11 06:27:06;;;;;;;3.10;2.90;;;;;;;19.26;61.87;97081.00;10495738;28;20049;-75
2023/06/11 06:32:28;;;;;;;3.10;2.90;;;;;;;19.26;61.98;97078.31;10496047;28;20093;-75
2023/06/11 06:37:48;;;;;;;3.33;3.03;;;;;;;19.27;61.98;97082.59;10495661;28;20048;-75
2023/06/11 06:43:08;;;;;;;3.30;3.00;;;;;;;19.28;62.05;97081.47;10509402;28;20052;-75
2023/06/11 06:48:28;;;;;;;3.00;2.80;;;;;;;19.28;62.08;97084.19;10481467;28;20040;-74
2023/06/11 06:53:50;;;;;;;3.05;2.85;;;;;;;19.26;62.07;97087.19;10467835;28;20051;-75
2023/06/11 06:59:11;;;;;;;3.13;2.92;;;;;;;19.27;61.73;97083.38;10467708;28;20044;-75
2023/06/11 07:04:32;;;;;;;3.03;2.83;;;;;;;19.27;62.03;97083.38;10470579;28;20157;-75
2023/06/11 07:09:52;;;;;;;3.10;2.70;;;;;;;19.29;62.03;97091.19;10481006;28;20041;-75
2023/06/11 07:15:12;;;;;;;3.00;2.80;;;;;;;19.28;62.18;97087.66;10495023;28;20055;-75
2023/06/11 07:20:32;;;;;;;3.15;2.70;;;;;;;19.27;62.06;97091.50;10480797;28;20112;-75
2023/06/11 07:25:52;;;;;;;3.10;2.90;;;;;;;19.28;62.21;97084.97;10494847;28;20449;-75
2023/06/11 07:31:12;;;;;;;2.80;2.60;;;;;;;19.28;62.03;97090.38;10494731;28;20110;-75
2023/06/11 07:36:35;;;;;;;2.97;2.72;;;;;;;19.29;62.20;97085.78;10480953;28;20119;-75
2023/06/11 07:41:57;;;;;;;2.58;2.38;;;;;;;19.28;62.19;97092.28;10480731;28;20052;-75
2023/06/11 07:47:18;;;;;;;2.78;2.58;;;;;;;19.28;62.10;97090.38;10485920;28;20083;-75
2023/06/11 07:52:38;;;;;;;2.92;2.72;;;;;;;19.29;62.13;97096.59;10502042;28;20048;-75
2023/06/11 07:58:18;;;;;;;2.92;2.72;;;;;;;19.29;62.10;97093.88;10490438;28;20040;-75
2023/06/11 08:03:37;;;;;;;2.72;2.53;;;;;;;19.29;62.14;97085.78;10508304;28;20090;-75
2023/06/11 08:08:56;;;;;;;2.95;2.75;;;;;;;19.29;62.04;97094.69;10473170;28;20053;-75
2023/06/11 08:14:18;;;;;;;2.63;2.42;;;;;;;19.30;62.17;97087.34;10501263;28;20492;-75
2023/06/11 08:19:38;;;;;;;2.80;2.60;;;;;;;19.30;62.35;97092.75;10515850;28;20405;-75
2023/06/11 08:24:57;;;;;;;2.80;2.60;;;;;;;19.29;62.18;97091.19;10515669;28;20070;-75
2023/06/11 08:30:17;;;;;;;2.85;2.65;;;;;;;19.29;62.23;97088.50;10500638;28;20041;-75
2023/06/11 08:35:36;;;;;;;2.72;2.53;;;;;;;19.30;62.10;97092.75;10500544;28;20044;-75
2023/06/11 08:40:56;;;;;;;2.53;2.33;;;;;;;19.29;62.26;97085.78;10500734;28;20158;-75
2023/06/11 08:46:15;;;;;;;2.60;2.40;;;;;;;19.29;62.28;97081.16;10486761;28;20051;-75
2023/06/11 08:51:37;;;;;;;2.60;2.40;;;;;;;19.31;62.28;97078.16;10514462;28;20416;-75
2023/06/11 08:56:57;;;;;;;2.85;2.65;;;;;;;19.30;62.16;97081.97;10485018;28;20044;-75
2023/06/11 09:02:17;;;;;;;3.00;2.70;;;;;;;19.30;62.04;97085.44;10495582;28;20110;-75
2023/06/11 09:07:37;;;;;;;4.88;3.45;;;;;;;19.33;61.63;97082.13;10485675;28;20125;-75
2023/06/11 09:12:56;;;;;;;3.90;3.60;;;;;;;19.33;61.29;97090.22;10485409;28;20044;-75
2023/06/11 09:18:22;;;;;;;5.13;4.13;;;;;;;19.34;61.24;97091.03;10484963;28;20036;-75
2023/06/11 09:23:45;;;;;;;4.50;4.10;;;;;;;19.35;60.97;97085.31;10498708;28;20051;-75
2023/06/11 09:29:05;;;;;;;4.88;4.47;;;;;;;19.35;60.66;97095.31;10484877;28;20127;-74
2023/06/11 09:34:24;;;;;;;4.72;4.30;;;;;;;19.35;60.61;97096.13;10498183;28;20037;-75
2023/06/11 09:39:46;;;;;;;5.43;4.93;;;;;;;19.36;60.48;97094.19;10498033;28;20111;-75
2023/06/11 09:45:13;;;;;;;5.28;4.78;;;;;;;19.35;60.62;97098.03;10497646;28;20115;-75
2023/06/11 09:50:33;;;;;;;6.20;5.03;;;;;;;19.35;60.65;97096.13;10498552;28;20182;-75
2023/06/11 09:55:53;;;;;;;5.20;4.65;;;;;;;19.37;60.13;97098.50;10497372;28;20567;-75
2023/06/11 10:01:12;;;;;;;5.90;4.95;;;;;;;19.38;59.97;97096.59;10495658;28;20049;-75
2023/06/11 10:06:37;;;;;;;9.25;5.18;;;;;;;19.38;60.22;97100.09;10482794;28;20052;-75
2023/06/11 10:11:57;;;;;;;8.90;5.55;;;;;;;19.38;60.65;97105.47;10496892;28;20037;-75
2023/06/11 10:17:16;;;;;;;7.25;6.10;;;;;;;19.38;61.34;97104.69;10496979;28;20055;-75
2023/06/11 10:22:36;;;;;;;9.25;6.57;;;;;;;19.38;61.76;97105.47;10482267;28;20508;-75
2023/06/11 10:27:58;;;;;;;8.73;6.63;;;;;;;19.38;62.24;97105.47;10482505;28;20089;-75
2023/06/11 10:33:17;;;;;;;6.47;5.43;;;;;;;19.39;62.15;97114.41;10496113;28;20048;-75
2023/06/11 10:38:38;;;;;;;6.53;5.82;;;;;;;19.39;61.96;97115.19;10495710;28;20044;-74
2023/06/11 10:43:57;;;;;;;5.82;5.22;;;;;;;19.40;61.09;97118.69;10481652;28;20047;-74
2023/06/11 10:49:22;;;;;;;5.65;5.15;;;;;;;19.40;60.64;97115.97;10482088;28;20041;-75
2023/06/11 10:54:43;;;;;;;6.03;4.70;;;;;;;19.41;59.78;97123.00;10495695;28;20401;-74
2023/06/11 11:00:06;;;;;;;5.20;4.70;;;;;;;19.41;59.44;97120.28;10509550;28;20058;-74
2023/06/11 11:05:25;;;;;;;6.68;4.93;;;;;;;19.42;59.04;97119.16;10482771;28;20500;-74
2023/06/11 11:10:45;;;;;;;7.40;5.00;;;;;;;19.42;58.70;97117.25;10495309;28;20044;-74
2023/06/11 11:16:04;;;;;;;4.97;4.35;;;;;;;19.42;58.54;97125.34;10495013;28;20051;-75
2023/06/11 11:21:28;;;;;;;5.53;4.85;;;;;;;19.41;58.55;97121.06;10471046;28;20075;-74
2023/06/11 11:26:48;;;;;;;5.03;4.40;;;;;;;19.41;58.52;97118.38;10518014;28;20484;-74
2023/06/11 11:32:07;;;;;;;4.93;4.50;;;;;;;19.41;58.22;97123.78;10502713;28;20036;-74
2023/06/11 11:37:30;;;;;;;5.68;4.22;;;;;;;19.43;58.08;97113.44;10502774;28;20044;-73
2023/06/11 11:42:52;;;;;;;5.13;4.72;;;;;;;19.45;57.85;97108.53;10502969;28;20065;-74
2023/06/11 11:48:13;;;;;;;4.65;4.25;;;;;;;19.43;57.98;97113.44;10502079;28;20082;-75
2023/06/11 11:53:33;;;;;;;5.13;4.40;;;;;;;19.43;57.87;97109.97;10517081;28;20496;-75
2023/06/11 11:58:53;;;;;;;4.07;3.65;;;;;;;19.43;57.43;97113.44;10487633;28;20065;-74
2023/06/11 12:04:12;;;;;;;5.88;4.32;;;;;;;19.43;57.29;97107.25;10491620;28;20056;-75
2023/06/11 12:09:37;;;;;;;4.93;4.50;;;;;;;19.42;56.71;97106.44;10487159;28;20050;-75
2023/06/11 12:14:56;;;;;;;4.90;4.10;;;;;;;19.41;56.79;97107.56;10500933;28;20045;-75
2023/06/11 12:20:16;;;;;;;5.88;4.05;;;;;;;19.42;56.47;97105.66;10500675;28;20041;-75
2023/06/11 12:25:35;;;;;;;6.05;4.25;;;;;;;19.42;56.04;97105.66;10515551;28;20045;-74
2023/06/11 12:30:55;;;;;;;7.32;4.60;;;;;;;19.43;55.99;97108.03;10500134;28;20045;-75
2023/06/11 12:36:14;;;;;;;7.75;4.63;;;;;;;19.42;55.71;97090.22;10500335;28;20044;-74
2023/06/11 12:41:34;;;;;;;6.68;3.97;;;;;;;19.43;55.49;97086.44;10486167;28;20036;-74
2023/06/11 12:46:54;;;;;;;6.63;4.57;;;;;;;19.43;55.57;97074.84;10514731;28;20124;-75
2023/06/11 12:52:13;;;;;;;7.88;4.68;;;;;;;19.42;55.96;97081.34;10499565;28;20044;-74
2023/06/11 12:57:33;;;;;;;5.70;4.13;;;;;;;19.42;55.45;97079.44;10485952;28;20044;-75
2023/06/11 13:02:53;;;;;;;5.05;4.40;;;;;;;19.42;55.27;97068.63;10479295;28;20144;-74
2023/06/11 13:08:13;;;;;;;6.97;4.88;;;;;;;19.43;55.12;97058.63;10471088;28;20041;-74
2023/06/11 13:13:32;;;;;;;8.38;4.45;;;;;;;19.42;55.12;97067.81;10484688;28;20078;-74
2023/06/11 13:18:52;;;;;;;4.95;4.22;;;;;;;19.43;55.08;97072.94;10498436;28;20123;-74
2023/06/11 13:24:11;;;;;;;6.57;4.80;;;;;;;19.43;55.09;97061.31;10513263;28;20129;-75
2023/06/11 13:29:31;;;;;;;6.70;4.22;;;;;;;19.43;54.63;97064.81;10498132;28;20040;-74
2023/06/11 13:34:51;;;;;;;4.90;3.83;;;;;;;19.44;54.27;97061.00;10497926;28;20049;-74
2023/06/11 13:40:11;;;;;;;6.38;4.32;;;;;;;19.46;53.98;97047.16;10483791;28;20054;-74
2023/06/11 13:45:31;;;;;;;6.15;4.38;;;;;;;19.45;54.05;97046.38;10496897;28;20399;-74
2023/06/11 13:50:51;;;;;;;6.97;4.30;;;;;;;19.45;54.37;97046.38;10497467;28;20047;-74
2023/06/11 13:56:11;;;;;;;4.07;3.20;;;;;;;19.46;53.99;97047.97;10497183;28;20071;-75
2023/06/11 14:01:31;;;;;;;4.75;4.30;;;;;;;19.48;54.00;97053.88;10469322;28;20136;-74
2023/06/11 14:06:50;;;;;;;5.07;4.47;;;;;;;19.46;54.39;97053.34;10511177;28;20481;-75
2023/06/11 14:12:11;;;;;;;4.63;4.10;;;;;;;19.46;54.73;97045.25;10497273;28;20045;-74
2023/06/11 14:17:32;;;;;;;4.85;4.20;;;;;;;19.47;54.61;97048.78;10497088;28;20545;-74
2023/06/11 14:22:53;;;;;;;4.93;4.43;;;;;;;19.46;54.47;97053.34;10497028;28;20039;-74
2023/06/11 14:28:12;;;;;;;4.63;3.20;;;;;;;19.49;53.93;97052.75;10468737;28;20059;-74
2023/06/11 14:33:32;;;;;;;4.88;4.25;;;;;;;19.51;53.97;97044.31;10482653;28;20048;-74
2023/06/11 14:38:51;;;;;;;5.57;4.60;;;;;;;19.51;54.33;97037.00;10496447;28;20041;-74
2023/06/11 14:44:13;;;;;;;7.97;4.55;;;;;;;19.50;54.57;97035.44;10511103;28;20044;-74
2023/06/11 14:49:32;;;;;;;4.13;3.83;;;;;;;19.51;54.52;97039.69;10481554;28;20040;-75
2023/06/11 14:54:52;;;;;;;4.68;3.60;;;;;;;19.52;54.33;97033.19;10484902;28;20055;-74
2023/06/11 15:00:13;;;;;;;5.88;4.40;;;;;;;19.55;54.36;97031.75;10504552;28;20044;-75
2023/06/11 15:05:32;;;;;;;4.10;3.70;;;;;;;19.58;54.56;97022.22;10490193;28;20056;-74
2023/06/11 15:10:52;;;;;;;6.55;5.10;;;;;;;19.58;54.79;97025.69;10503531;28;20418;-74
2023/06/11 15:16:11;;;;;;;6.80;4.97;;;;;;;19.62;54.56;97018.56;10503375;28;20053;-74
2023/06/11 15:21:31;;;;;;;5.03;4.47;;;;;;;19.62;54.58;97005.06;10503032;28;20404;-74
2023/06/11 15:26:50;;;;;;;4.80;4.38;;;;;;;19.60;54.28;97011.88;10502919;28;20036;-75
2023/06/11 15:32:09;;;;;;;5.20;4.60;;;;;;;19.62;53.65;97010.47;10516923;28;20488;-74
2023/06/11 15:37:29;;;;;;;7.40;4.45;;;;;;;19.62;52.84;97015.06;10502634;28;20044;-74
2023/06/11 15:42:49;;;;;;;5.93;4.70;;;;;;;19.64;53.07;97015.53;10516450;28;20120;-75
2023/06/11 15:48:08;;;;;;;5.88;4.20;;;;;;;19.65;53.16;97015.22;10517234;28;20115;-74
2023/06/11 15:53:28;;;;;;;5.22;3.78;;;;;;;19.64;53.07;97008.25;10516006;28;20097;-74
2023/06/11 15:58:48;;;;;;;5.07;4.30;;;;;;;19.64;52.83;97004.72;10515791;28;20045;-75
2023/06/11 16:04:08;;;;;;;5.18;4.53;;;;;;;19.62;52.91;97005.06;10506062;28;20057;-74
2023/06/11 16:09:27;;;;;;;4.95;4.40;;;;;;;19.62;52.68;97001.53;10514825;28;20047;-74
2023/06/11 16:14:47;;;;;;;4.72;3.92;;;;;;;19.63;52.60;97005.84;10500999;28;20055;-75
2023/06/11 16:20:08;;;;;;;5.18;4.55;;;;;;;19.62;52.48;97007.75;10500470;28;20090;-74
2023/06/11 16:25:27;;;;;;;4.60;3.47;;;;;;;19.63;52.21;97005.84;10500585;28;20036;-75
2023/06/11 16:30:47;;;;;;;4.97;4.20;;;;;;;19.63;51.02;97003.94;10500491;28;20044;-74
2023/06/11 16:36:06;;;;;;;5.13;4.07;;;;;;;19.67;50.93;97007.59;10515309;28;20040;-75
2023/06/11 16:41:26;;;;;;;5.60;4.55;;;;;;;19.67;51.05;97013.00;10500212;28;20036;-74
2023/06/11 16:46:46;;;;;;;4.78;4.07;;;;;;;19.66;51.12;97007.91;10485754;28;20052;-74
2023/06/11 16:52:06;;;;;;;4.85;4.22;;;;;;;19.65;50.90;97011.72;10499755;28;20112;-75
2023/06/11 16:57:26;;;;;;;4.05;3.58;;;;;;;19.65;50.57;97009.03;10485631;28;20139;-74
2023/06/11 17:02:48;;;;;;;5.72;4.75;;;;;;;19.66;50.25;97011.41;10479630;28;20051;-75
2023/06/11 17:08:08;;;;;;;4.45;4.03;;;;;;;19.66;50.06;97013.31;10485204;28;20041;-75
2023/06/11 17:13:28;;;;;;;4.47;3.88;;;;;;;19.67;50.13;97015.69;10498901;28;20145;-74
2023/06/11 17:18:47;;;;;;;5.38;4.25;;;;;;;19.65;49.78;97009.81;10483583;28;20040;-75
2023/06/11 17:24:09;;;;;;;5.32;4.20;;;;;;;19.66;49.77;97016.81;10456983;28;20045;-74
2023/06/11 17:29:29;;;;;;;4.07;3.25;;;;;;;19.67;49.42;97020.31;10470755;28;20481;-75
2023/06/11 17:34:48;;;;;;;7.90;4.30;;;;;;;19.68;49.25;97019.19;10470458;28;20045;-74
2023/06/11 17:40:08;;;;;;;6.97;4.50;;;;;;;19.67;49.86;97021.09;10470391;28;20048;-74
2023/06/11 17:45:28;;;;;;;6.47;4.05;;;;;;;19.65;49.83;97017.13;10455945;28;20037;-75
2023/06/11 17:50:48;;;;;;;7.90;4.60;;;;;;;19.65;50.38;97014.44;10455798;28;20052;-74
2023/06/11 17:56:08;;;;;;;5.43;4.25;;;;;;;19.64;50.11;97019.06;10469718;28;20053;-75
2023/06/11 18:01:28;;;;;;;5.15;4.65;;;;;;;19.65;50.56;97025.25;10465972;28;20052;-73
2023/06/11 18:06:47;;;;;;;7.80;4.93;;;;;;;19.64;51.11;97023.63;10441964;28;20041;-73
2023/06/11 18:12:07;;;;;;;5.25;4.70;;;;;;;19.65;50.91;97027.94;10469837;28;20478;-73
2023/06/11 18:17:27;;;;;;;5.22;4.50;;;;;;;19.63;51.02;97024.75;10469675;28;20110;-73
2023/06/11 18:22:46;;;;;;;5.72;4.22;;;;;;;19.60;49.25;97020.81;10473955;28;20045;-73
2023/06/11 18:28:06;;;;;;;7.25;4.63;;;;;;;19.59;50.45;97024.59;10454235;28;20045;-73
2023/06/11 18:33:26;;;;;;;5.97;5.30;;;;;;;19.59;50.72;97024.59;10454089;28;20041;-72
2023/06/11 18:38:45;;;;;;;7.18;5.18;;;;;;;19.58;50.91;97030.31;10469053;28;20040;-73
2023/06/11 18:44:05;;;;;;;6.13;4.60;;;;;;;19.52;48.85;97024.28;10439876;28;20040;-73
2023/06/11 18:49:35;;;;;;;5.60;4.68;;;;;;;19.50;49.11;97035.44;10455475;28;20478;-72
2023/06/11 18:54:54;;;;;;;7.10;4.78;;;;;;;19.46;48.49;97028.25;10453804;28;20052;-72
2023/06/11 19:00:17;;;;;;;6.75;4.43;;;;;;;19.43;47.97;97037.81;10454048;28;20049;-73
2023/06/11 19:05:37;;;;;;;5.82;4.80;;;;;;;19.40;48.16;97041.13;10440659;28;20053;-72
2023/06/11 19:10:56;;;;;;;8.38;4.80;;;;;;;19.40;48.08;97040.34;10467519;28;20052;-72
2023/06/11 19:16:16;;;;;;;7.55;4.63;;;;;;;19.39;47.66;97041.47;10453681;28;20045;-72
2023/06/11 19:21:36;;;;;;;5.03;4.18;;;;;;;19.36;47.36;97046.34;10477536;28;20048;-72
2023/06/11 19:26:55;;;;;;;7.25;4.10;;;;;;;19.38;47.66;97046.06;10480647;28;20484;-72
2023/06/11 19:32:15;;;;;;;5.40;4.00;;;;;;;19.39;47.59;97061.16;10509599;28;20392;-72
2023/06/11 19:37:34;;;;;;;5.32;4.45;;;;;;;19.40;48.42;97062.75;10480334;28;20056;-72
2023/06/11 19:42:54;;;;;;;5.18;4.18;;;;;;;19.42;49.20;97060.50;10486469;28;20040;-71
2023/06/11 19:48:18;;;;;;;7.47;4.40;;;;;;;19.44;49.87;97071.78;10488028;28;20037;-71
2023/06/11 19:53:38;;;;;;;5.55;4.47;;;;;;;19.45;50.45;97073.41;10488555;28;20041;-72
2023/06/11 19:58:58;;;;;;;6.75;4.57;;;;;;;19.44;51.21;97082.59;10503540;28;20045;-72
2023/06/11 20:04:17;;;;;;;8.75;4.88;;;;;;;19.43;51.69;97089.13;10491354;28;20052;-73
2023/06/11 20:09:37;;;;;;;5.43;4.90;;;;;;;19.44;51.67;97087.22;10516255;28;20477;-72
2023/06/11 20:14:57;;;;;;;6.40;5.00;;;;;;;19.43;51.88;97094.53;10500936;28;20114;-72
2023/06/11 20:20:16;;;;;;;6.68;5.30;;;;;;;19.43;52.05;97091.03;10486521;28;20040;-73
2023/06/11 20:25:35;;;;;;;5.53;5.03;;;;;;;19.42;51.94;97095.63;10487147;28;20412;-72
2023/06/11 20:30:55;;;;;;;5.50;4.72;;;;;;;19.42;51.94;97094.84;10500329;28;20102;-73
2023/06/11 20:36:16;;;;;;;5.10;4.60;;;;;;;19.42;51.83;97094.84;10472410;28;20404;-73
2023/06/11 20:41:36;;;;;;;4.82;4.32;;;;;;;19.40;51.54;97097.06;10500316;28;20503;-72
2023/06/11 20:46:55;;;;;;;6.10;4.50;;;;;;;19.40;51.82;97097.84;10499745;28;20041;-72
2023/06/11 20:52:15;;;;;;;4.70;4.13;;;;;;;19.40;52.24;97095.16;10485457;28;20040;-72
2023/06/11 20:57:35;;;;;;;4.38;3.97;;;;;;;19.41;52.11;97085.16;10499553;28;20048;-72
2023/06/11 21:02:55;;;;;;;4.88;4.07;;;;;;;19.42;52.09;97089.44;10493191;28;20053;-72
2023/06/11 21:08:17;;;;;;;4.53;4.07;;;;;;;19.43;52.43;97091.03;10485118;28;20076;-72
2023/06/11 21:13:38;;;;;;;6.10;4.32;;;;;;;19.41;52.69;97080.56;10499568;28;20047;-72
2023/06/11 21:18:58;;;;;;;5.07;4.10;;;;;;;19.41;52.75;97079.75;10484643;28;20114;-72
2023/06/11 21:24:18;;;;;;;6.50;4.47;;;;;;;19.40;52.50;97081.66;10484576;28;20047;-71
2023/06/11 21:29:37;;;;;;;4.30;3.90;;;;;;;19.40;52.78;97076.25;10498650;28;20044;-71
2023/06/11 21:34:56;;;;;;;6.38;3.90;;;;;;;19.40;53.03;97068.13;10498490;28;20040;-71
2023/06/11 21:40:16;;;;;;;4.10;3.70;;;;;;;19.41;53.17;97075.16;10484309;28;20045;-71
2023/06/11 21:45:35;;;;;;;4.00;3.60;;;;;;;19.40;53.22;97073.53;10484156;28;20045;-72
2023/06/11 21:50:55;;;;;;;4.68;4.15;;;;;;;19.42;53.51;97075.94;10497912;28;20496;-71
2023/06/11 21:56:15;;;;;;;4.30;3.90;;;;;;;19.42;53.61;97078.63;10512836;28;20055;-72
2023/06/11 22:01:34;;;;;;;4.15;3.83;;;;;;;19.41;53.87;97079.75;10494901;28;20493;-71
2023/06/11 22:06:56;;;;;;;6.15;3.75;;;;;;;19.41;53.92;97075.16;10510400;28;20044;-74
2023/06/11 22:12:16;;;;;;;4.30;3.75;;;;;;;19.42;54.05;97065.13;10483138;28;20412;-71
2023/06/11 22:17:36;;;;;;;4.47;3.53;;;;;;;19.41;54.39;97072.44;10496857;28;20412;-71
2023/06/11 22:22:56;;;;;;;4.20;3.80;;;;;;;19.43;54.42;97072.13;10496271;28;20086;-72
2023/06/11 22:28:16;;;;;;;3.58;3.20;;;;;;;19.42;54.61;97062.44;10496109;28;20050;-72
2023/06/11 22:33:36;;;;;;;3.97;3.67;;;;;;;19.42;54.83;97063.22;10511162;28;20041;-71
2023/06/11 22:38:55;;;;;;;4.28;3.70;;;;;;;19.43;54.84;97053.22;10495929;28;20037;-72
2023/06/11 22:44:16;;;;;;;4.10;3.47;;;;;;;19.42;55.03;97048.91;10468244;28;20044;-71
2023/06/11 22:49:37;;;;;;;4.75;3.47;;;;;;;19.42;55.09;97065.13;10481820;28;20489;-72
2023/06/11 22:54:57;;;;;;;3.70;3.40;;;;;;;19.42;55.19;97054.31;10481633;28;20045;-71
2023/06/11 23:00:17;;;;;;;3.80;3.50;;;;;;;19.42;55.32;97057.81;10495980;28;20040;-74
2023/06/11 23:05:37;;;;;;;3.50;3.20;;;;;;;19.42;55.25;97048.91;10481786;28;20109;-74
2023/06/11 23:10:57;;;;;;;4.15;3.75;;;;;;;19.42;55.41;97040.81;10495435;28;20040;-74
2023/06/11 23:16:17;;;;;;;3.60;3.30;;;;;;;19.41;55.62;97047.34;10483511;28;20049;-74
2023/06/11 23:21:41;;;;;;;4.15;3.75;;;;;;;19.42;55.69;97047.00;10489329;28;20087;-74
2023/06/11 23:27:01;;;;;;;3.67;3.38;;;;;;;19.43;55.76;97039.72;10503905;28;20040;-74
2023/06/11 23:32:21;;;;;;;3.60;3.30;;;;;;;19.42;55.86;97038.91;10502979;28;20078;-74
2023/06/11 23:37:41;;;;;;;3.80;3.20;;;;;;;19.41;55.95;97040.03;10502861;28;20049;-75
2023/06/11 23:43:01;;;;;;;3.53;3.22;;;;;;;19.43;55.90;97037.00;10502595;28;20044;-74
2023/06/11 23:48:20;;;;;;;3.45;3.13;;;;;;;19.42;56.27;97036.19;10502282;28;20044;-74
2023/06/11 23:53:39;;;;;;;3.58;3.28;;;;;;;19.42;56.16;97032.72;10502143;28;20044;-74
2023/06/11 23:58:59;;;;;;;3.38;3.13;;;;;;;19.42;56.25;97036.19;10516983;28;20094;-74
